Ocean Bluff, Massachusetts
Current Conditions -  °F | °C
As of 6:52 PM on Wednesday 26 Nov 2014 (Local Time) from KPYM Reporting Station
Moderate Rain Moderate Rain  
Wind Chill: 33°   Ceiling: 800
Heat Index: 42°   Visibility: 5mi
Dew Point: 40°   Wind: 23mph
Humidity: 92%   Direction: 40°NE
Pressure: 29.72"   Gusts: 36mph
Location:  42.1°N, 70.65°W
Report Text: KPYM 262352Z AUTO 04020G31KT 5SM RA BR BKN008 BKN013 OVC037 06/04 A2972 RMK AO2 PK WND 04034/2336 SLP065 P0018 60118 T00560044 10056 20044 58042
Loading
Personal Weather Stations






























Interactive Weather Map New forecast layout! Learn more

10-Day Weather Forecast

Advertisements
Track Severe Weather on mobile